sensor_id;sensor_type;location;lat;lon;timestamp;temperature;humidity
36444;DHT22;24692;45.642;13.806;2023-02-28T00:01:00;3.70;99.90
36444;DHT22;24692;45.642;13.806;2023-02-28T00:03:26;3.80;99.90
36444;DHT22;24692;45.642;13.806;2023-02-28T00:05:52;3.60;99.90
36444;DHT22;24692;45.642;13.806;2023-02-28T00:08:17;3.80;99.90
36444;DHT22;24692;45.642;13.806;2023-02-28T00:10:43;3.80;99.90
36444;DHT22;24692;45.642;13.806;2023-02-28T00:13:08;3.70;99.90
36444;DHT22;24692;45.642;13.806;2023-02-28T00:15:34;3.80;99.90
36444;DHT22;24692;45.642;13.806;2023-02-28T00:18:00;3.90;99.90
36444;DHT22;24692;45.642;13.806;2023-02-28T00:20:26;4.00;99.90
36444;DHT22;24692;45.642;13.806;2023-02-28T00:22:52;3.90;99.90
36444;DHT22;24692;45.642;13.806;2023-02-28T00:25:21;3.90;99.90
36444;DHT22;24692;45.642;13.806;2023-02-28T00:27:48;3.80;99.90
36444;DHT22;24692;45.642;13.806;2023-02-28T00:30:17;3.70;99.90
36444;DHT22;24692;45.642;13.806;2023-02-28T00:32:43;3.70;99.90
36444;DHT22;24692;45.642;13.806;2023-02-28T00:35:10;3.60;99.90
36444;DHT22;24692;45.642;13.806;2023-02-28T00:37:36;3.70;99.90
36444;DHT22;24692;45.642;13.806;2023-02-28T00:40:02;3.60;99.90
36444;DHT22;24692;45.642;13.806;2023-02-28T00:42:30;3.60;99.90
36444;DHT22;24692;45.642;13.806;2023-02-28T00:44:56;3.60;99.90
36444;DHT22;24692;45.642;13.806;2023-02-28T00:47:21;3.60;99.90
36444;DHT22;24692;45.642;13.806;2023-02-28T00:49:47;3.60;99.90
36444;DHT22;24692;45.642;13.806;2023-02-28T00:52:12;3.70;99.90
36444;DHT22;24692;45.642;13.806;2023-02-28T00:54:38;3.80;99.90
36444;DHT22;24692;45.642;13.806;2023-02-28T00:57:04;3.80;99.90
36444;DHT22;24692;45.642;13.806;2023-02-28T00:59:29;3.70;99.90
36444;DHT22;24692;45.642;13.806;2023-02-28T01:01:55;3.70;99.90
36444;DHT22;24692;45.642;13.806;2023-02-28T01:04:21;3.70;99.90
36444;DHT22;24692;45.642;13.806;2023-02-28T01:06:46;3.80;99.90
36444;DHT22;24692;45.642;13.806;2023-02-28T01:09:12;3.80;99.90
36444;DHT22;24692;45.642;13.806;2023-02-28T01:11:38;4.00;99.90
36444;DHT22;24692;45.642;13.806;2023-02-28T01:14:06;3.80;99.90
36444;DHT22;24692;45.642;13.806;2023-02-28T01:16:31;3.70;99.90
36444;DHT22;24692;45.642;13.806;2023-02-28T01:18:57;3.60;99.90
36444;DHT22;24692;45.642;13.806;2023-02-28T01:21:23;3.70;99.90
36444;DHT22;24692;45.642;13.806;2023-02-28T01:23:49;3.80;99.90
36444;DHT22;24692;45.642;13.806;2023-02-28T01:26:21;3.80;99.90
36444;DHT22;24692;45.642;13.806;2023-02-28T01:28:49;3.80;99.90
36444;DHT22;24692;45.642;13.806;2023-02-28T01:31:15;3.90;99.90
36444;DHT22;24692;45.642;13.806;2023-02-28T01:33:41;3.90;99.90
36444;DHT22;24692;45.642;13.806;2023-02-28T01:36:10;3.90;99.90
36444;DHT22;24692;45.642;13.806;2023-02-28T01:38:36;3.80;99.90
36444;DHT22;24692;45.642;13.806;2023-02-28T01:41:03;3.70;99.90
36444;DHT22;24692;45.642;13.806;2023-02-28T01:46:10;3.90;99.90
36444;DHT22;24692;45.642;13.806;2023-02-28T01:48:40;3.90;99.90
36444;DHT22;24692;45.642;13.806;2023-02-28T01:51:12;3.80;99.90
36444;DHT22;24692;45.642;13.806;2023-02-28T01:53:47;3.70;99.90
36444;DHT22;24692;45.642;13.806;2023-02-28T01:56:19;3.80;99.90
36444;DHT22;24692;45.642;13.806;2023-02-28T01:58:52;3.80;99.90
36444;DHT22;24692;45.642;13.806;2023-02-28T02:01:19;3.90;99.90
36444;DHT22;24692;45.642;13.806;2023-02-28T02:03:55;3.90;99.90
36444;DHT22;24692;45.642;13.806;2023-02-28T02:06:36;4.00;99.90
36444;DHT22;24692;45.642;13.806;2023-02-28T02:09:03;4.10;99.90
36444;DHT22;24692;45.642;13.806;2023-02-28T02:11:28;4.10;99.90
36444;DHT22;24692;45.642;13.806;2023-02-28T02:17:04;4.20;99.90
36444;DHT22;24692;45.642;13.806;2023-02-28T02:33:36;4.20;99.90
36444;DHT22;24692;45.642;13.806;2023-02-28T02:36:18;4.10;99.90
36444;DHT22;24692;45.642;13.806;2023-02-28T02:39:11;4.00;99.90
36444;DHT22;24692;45.642;13.806;2023-02-28T02:41:53;4.00;99.90
36444;DHT22;24692;45.642;13.806;2023-02-28T02:44:26;4.10;99.90
36444;DHT22;24692;45.642;13.806;2023-02-28T02:47:05;4.00;99.90
36444;DHT22;24692;45.642;13.806;2023-02-28T02:49:32;3.90;99.90
36444;DHT22;24692;45.642;13.806;2023-02-28T02:52:06;4.00;99.90
36444;DHT22;24692;45.642;13.806;2023-02-28T02:54:40;4.10;99.90
36444;DHT22;24692;45.642;13.806;2023-02-28T02:57:15;4.00;99.90
36444;DHT22;24692;45.642;13.806;2023-02-28T02:59:44;4.00;99.90
36444;DHT22;24692;45.642;13.806;2023-02-28T03:02:12;4.00;99.90
36444;DHT22;24692;45.642;13.806;2023-02-28T03:04:53;4.00;99.90
36444;DHT22;24692;45.642;13.806;2023-02-28T03:07:26;4.00;99.90
36444;DHT22;24692;45.642;13.806;2023-02-28T03:09:53;4.10;99.90
36444;DHT22;24692;45.642;13.806;2023-02-28T03:12:19;4.20;99.90
36444;DHT22;24692;45.642;13.806;2023-02-28T03:15:12;4.20;99.90
36444;DHT22;24692;45.642;13.806;2023-02-28T03:20:33;4.00;99.90
36444;DHT22;24692;45.642;13.806;2023-02-28T03:23:37;4.00;99.90
36444;DHT22;24692;45.642;13.806;2023-02-28T03:25:56;3.90;99.90
36444;DHT22;24692;45.642;13.806;2023-02-28T03:28:36;3.90;99.90
36444;DHT22;24692;45.642;13.806;2023-02-28T03:31:17;3.90;99.90
36444;DHT22;24692;45.642;13.806;2023-02-28T03:33:54;3.80;99.90
36444;DHT22;24692;45.642;13.806;2023-02-28T03:36:27;3.90;99.90
36444;DHT22;24692;45.642;13.806;2023-02-28T03:38:58;3.90;99.90
36444;DHT22;24692;45.642;13.806;2023-02-28T03:41:58;3.80;99.90
36444;DHT22;24692;45.642;13.806;2023-02-28T03:44:29;3.70;99.90
36444;DHT22;24692;45.642;13.806;2023-02-28T03:47:27;3.80;99.90
36444;DHT22;24692;45.642;13.806;2023-02-28T03:49:58;3.70;99.90
36444;DHT22;24692;45.642;13.806;2023-02-28T03:52:27;3.80;99.90
36444;DHT22;24692;45.642;13.806;2023-02-28T03:54:58;3.80;99.90
36444;DHT22;24692;45.642;13.806;2023-02-28T03:57:37;3.80;99.90
36444;DHT22;24692;45.642;13.806;2023-02-28T04:00:32;3.70;99.90
36444;DHT22;24692;45.642;13.806;2023-02-28T04:03:00;3.80;99.90
36444;DHT22;24692;45.642;13.806;2023-02-28T04:05:26;4.00;99.90
36444;DHT22;24692;45.642;13.806;2023-02-28T04:07:53;4.00;99.90
36444;DHT22;24692;45.642;13.806;2023-02-28T04:10:19;3.90;99.90
36444;DHT22;24692;45.642;13.806;2023-02-28T04:12:45;4.00;99.90
36444;DHT22;24692;45.642;13.806;2023-02-28T04:15:11;3.90;99.90
36444;DHT22;24692;45.642;13.806;2023-02-28T04:17:37;3.90;99.90
36444;DHT22;24692;45.642;13.806;2023-02-28T04:20:04;3.80;99.90
36444;DHT22;24692;45.642;13.806;2023-02-28T04:22:35;3.80;99.90
36444;DHT22;24692;45.642;13.806;2023-02-28T04:25:00;3.90;99.90
36444;DHT22;24692;45.642;13.806;2023-02-28T04:27:26;3.90;99.90
36444;DHT22;24692;45.642;13.806;2023-02-28T04:29:51;3.90;99.90
36444;DHT22;24692;45.642;13.806;2023-02-28T04:32:17;3.90;99.90
36444;DHT22;24692;45.642;13.806;2023-02-28T04:34:43;3.90;99.90
36444;DHT22;24692;45.642;13.806;2023-02-28T04:37:08;3.90;99.90
36444;DHT22;24692;45.642;13.806;2023-02-28T04:39:36;3.70;99.90
36444;DHT22;24692;45.642;13.806;2023-02-28T04:42:02;3.70;99.90
36444;DHT22;24692;45.642;13.806;2023-02-28T04:44:28;3.60;99.90
36444;DHT22;24692;45.642;13.806;2023-02-28T04:46:54;3.80;99.90
36444;DHT22;24692;45.642;13.806;2023-02-28T04:49:19;3.70;99.90
36444;DHT22;24692;45.642;13.806;2023-02-28T04:51:45;3.70;99.90
36444;DHT22;24692;45.642;13.806;2023-02-28T04:54:11;3.70;99.90
36444;DHT22;24692;45.642;13.806;2023-02-28T04:56:36;3.80;99.90
36444;DHT22;24692;45.642;13.806;2023-02-28T04:59:02;3.70;99.90
36444;DHT22;24692;45.642;13.806;2023-02-28T05:01:30;3.60;99.90
36444;DHT22;24692;45.642;13.806;2023-02-28T05:03:59;3.60;99.90
36444;DHT22;24692;45.642;13.806;2023-02-28T05:06:27;3.60;99.90
36444;DHT22;24692;45.642;13.806;2023-02-28T05:08:53;3.70;99.90
36444;DHT22;24692;45.642;13.806;2023-02-28T05:11:25;3.70;99.90
36444;DHT22;24692;45.642;13.806;2023-02-28T05:13:51;3.90;99.90
36444;DHT22;24692;45.642;13.806;2023-02-28T05:16:17;3.90;99.90
36444;DHT22;24692;45.642;13.806;2023-02-28T05:18:44;3.80;99.90
36444;DHT22;24692;45.642;13.806;2023-02-28T05:21:31;3.80;99.90
36444;DHT22;24692;45.642;13.806;2023-02-28T05:23:59;3.70;99.90
36444;DHT22;24692;45.642;13.806;2023-02-28T05:26:25;3.80;99.90
36444;DHT22;24692;45.642;13.806;2023-02-28T05:28:51;3.70;99.90
36444;DHT22;24692;45.642;13.806;2023-02-28T05:31:17;3.70;99.90
36444;DHT22;24692;45.642;13.806;2023-02-28T05:33:42;3.70;99.90
36444;DHT22;24692;45.642;13.806;2023-02-28T05:36:08;3.70;99.90
36444;DHT22;24692;45.642;13.806;2023-02-28T05:38:34;3.80;99.90
36444;DHT22;24692;45.642;13.806;2023-02-28T05:41:00;3.80;99.90
36444;DHT22;24692;45.642;13.806;2023-02-28T05:43:25;3.90;99.90
36444;DHT22;24692;45.642;13.806;2023-02-28T05:45:51;3.80;99.90
36444;DHT22;24692;45.642;13.806;2023-02-28T05:48:16;3.80;99.90
36444;DHT22;24692;45.642;13.806;2023-02-28T05:50:43;3.90;99.90
36444;DHT22;24692;45.642;13.806;2023-02-28T05:53:11;4.00;99.90
36444;DHT22;24692;45.642;13.806;2023-02-28T05:55:37;4.00;99.90
36444;DHT22;24692;45.642;13.806;2023-02-28T05:58:03;4.00;99.90
36444;DHT22;24692;45.642;13.806;2023-02-28T06:00:29;4.10;99.90
36444;DHT22;24692;45.642;13.806;2023-02-28T06:02:54;4.10;99.90
36444;DHT22;24692;45.642;13.806;2023-02-28T06:05:23;3.90;99.90
36444;DHT22;24692;45.642;13.806;2023-02-28T06:07:49;4.10;99.90
36444;DHT22;24692;45.642;13.806;2023-02-28T06:10:15;4.10;99.90
36444;DHT22;24692;45.642;13.806;2023-02-28T06:12:41;4.20;99.90
36444;DHT22;24692;45.642;13.806;2023-02-28T06:15:11;4.20;99.90
36444;DHT22;24692;45.642;13.806;2023-02-28T06:17:37;4.10;99.90
36444;DHT22;24692;45.642;13.806;2023-02-28T06:20:04;4.10;99.90
36444;DHT22;24692;45.642;13.806;2023-02-28T06:22:30;4.30;99.90
36444;DHT22;24692;45.642;13.806;2023-02-28T06:24:56;4.40;99.90
36444;DHT22;24692;45.642;13.806;2023-02-28T06:27:23;4.20;99.90
36444;DHT22;24692;45.642;13.806;2023-02-28T06:29:48;4.40;99.90
36444;DHT22;24692;45.642;13.806;2023-02-28T06:32:14;4.40;99.90
36444;DHT22;24692;45.642;13.806;2023-02-28T06:34:40;4.50;99.90
36444;DHT22;24692;45.642;13.806;2023-02-28T06:37:05;4.60;99.90
36444;DHT22;24692;45.642;13.806;2023-02-28T06:39:31;4.60;99.90
36444;DHT22;24692;45.642;13.806;2023-02-28T06:41:57;4.70;99.90
36444;DHT22;24692;45.642;13.806;2023-02-28T06:44:23;4.70;99.90
36444;DHT22;24692;45.642;13.806;2023-02-28T06:46:49;4.80;99.90
36444;DHT22;24692;45.642;13.806;2023-02-28T06:49:15;5.10;99.90
36444;DHT22;24692;45.642;13.806;2023-02-28T06:51:42;5.60;99.90
36444;DHT22;24692;45.642;13.806;2023-02-28T06:54:10;5.60;99.90
36444;DHT22;24692;45.642;13.806;2023-02-28T06:56:37;6.50;99.90
36444;DHT22;24692;45.642;13.806;2023-02-28T06:59:04;7.50;99.90
36444;DHT22;24692;45.642;13.806;2023-02-28T07:01:30;7.50;99.90
36444;DHT22;24692;45.642;13.806;2023-02-28T07:03:57;7.40;99.90
36444;DHT22;24692;45.642;13.806;2023-02-28T07:06:24;7.70;99.90
36444;DHT22;24692;45.642;13.806;2023-02-28T07:08:51;8.20;99.90
36444;DHT22;24692;45.642;13.806;2023-02-28T07:11:18;8.90;99.90
36444;DHT22;24692;45.642;13.806;2023-02-28T07:13:44;8.70;99.90
36444;DHT22;24692;45.642;13.806;2023-02-28T07:16:11;8.70;99.90
36444;DHT22;24692;45.642;13.806;2023-02-28T07:18:37;8.40;99.90
36444;DHT22;24692;45.642;13.806;2023-02-28T07:21:04;8.40;99.90
36444;DHT22;24692;45.642;13.806;2023-02-28T07:23:35;8.90;99.90
36444;DHT22;24692;45.642;13.806;2023-02-28T07:26:01;9.60;99.90
36444;DHT22;24692;45.642;13.806;2023-02-28T07:28:35;8.90;99.90
36444;DHT22;24692;45.642;13.806;2023-02-28T07:31:06;9.90;99.90
36444;DHT22;24692;45.642;13.806;2023-02-28T07:33:42;10.10;99.90
36444;DHT22;24692;45.642;13.806;2023-02-28T07:36:14;10.40;99.90
36444;DHT22;24692;45.642;13.806;2023-02-28T07:38:45;10.60;99.90
36444;DHT22;24692;45.642;13.806;2023-02-28T07:41:18;11.00;99.90
36444;DHT22;24692;45.642;13.806;2023-02-28T07:43:45;10.70;99.90
36444;DHT22;24692;45.642;13.806;2023-02-28T07:46:13;9.80;99.90
36444;DHT22;24692;45.642;13.806;2023-02-28T07:48:40;10.40;99.90
36444;DHT22;24692;45.642;13.806;2023-02-28T07:51:06;10.40;99.90
36444;DHT22;24692;45.642;13.806;2023-02-28T07:53:32;10.80;99.90
36444;DHT22;24692;45.642;13.806;2023-02-28T07:55:59;10.00;99.90
36444;DHT22;24692;45.642;13.806;2023-02-28T07:58:25;9.50;99.90
36444;DHT22;24692;45.642;13.806;2023-02-28T08:00:51;9.40;99.90
36444;DHT22;24692;45.642;13.806;2023-02-28T08:03:18;9.60;99.90
36444;DHT22;24692;45.642;13.806;2023-02-28T08:05:44;8.80;99.90
36444;DHT22;24692;45.642;13.806;2023-02-28T08:08:09;8.50;99.90
36444;DHT22;24692;45.642;13.806;2023-02-28T08:10:36;8.70;99.90
36444;DHT22;24692;45.642;13.806;2023-02-28T08:13:02;10.20;99.90
36444;DHT22;24692;45.642;13.806;2023-02-28T08:15:27;10.20;99.90
36444;DHT22;24692;45.642;13.806;2023-02-28T08:17:53;8.60;99.90
36444;DHT22;24692;45.642;13.806;2023-02-28T08:20:19;8.00;99.90
36444;DHT22;24692;45.642;13.806;2023-02-28T08:22:44;7.70;99.90
36444;DHT22;24692;45.642;13.806;2023-02-28T08:25:10;7.90;99.90
36444;DHT22;24692;45.642;13.806;2023-02-28T08:27:36;8.00;99.90
36444;DHT22;24692;45.642;13.806;2023-02-28T08:30:03;8.00;99.90
36444;DHT22;24692;45.642;13.806;2023-02-28T08:32:28;9.30;99.90
36444;DHT22;24692;45.642;13.806;2023-02-28T08:34:54;10.40;99.90
36444;DHT22;24692;45.642;13.806;2023-02-28T08:37:20;9.80;99.90
36444;DHT22;24692;45.642;13.806;2023-02-28T08:39:45;9.20;99.90
36444;DHT22;24692;45.642;13.806;2023-02-28T08:42:11;9.90;99.90
36444;DHT22;24692;45.642;13.806;2023-02-28T08:44:37;9.30;99.90
36444;DHT22;24692;45.642;13.806;2023-02-28T08:47:02;9.00;99.90
36444;DHT22;24692;45.642;13.806;2023-02-28T08:49:28;8.70;99.90
36444;DHT22;24692;45.642;13.806;2023-02-28T08:51:54;8.50;99.90
36444;DHT22;24692;45.642;13.806;2023-02-28T08:54:20;8.50;99.90
36444;DHT22;24692;45.642;13.806;2023-02-28T08:56:47;9.00;99.90
36444;DHT22;24692;45.642;13.806;2023-02-28T08:59:18;9.70;99.90
36444;DHT22;24692;45.642;13.806;2023-02-28T09:01:48;10.00;99.90
36444;DHT22;24692;45.642;13.806;2023-02-28T09:04:14;9.20;99.90
36444;DHT22;24692;45.642;13.806;2023-02-28T09:06:41;8.50;99.90
36444;DHT22;24692;45.642;13.806;2023-02-28T09:09:08;8.00;99.90
36444;DHT22;24692;45.642;13.806;2023-02-28T09:11:38;8.60;99.90
36444;DHT22;24692;45.642;13.806;2023-02-28T09:14:06;9.20;99.90
36444;DHT22;24692;45.642;13.806;2023-02-28T09:16:43;10.50;99.90
36444;DHT22;24692;45.642;13.806;2023-02-28T09:19:15;11.20;99.90
36444;DHT22;24692;45.642;13.806;2023-02-28T09:21:41;11.40;99.90
36444;DHT22;24692;45.642;13.806;2023-02-28T09:24:07;11.40;99.90
36444;DHT22;24692;45.642;13.806;2023-02-28T09:26:33;11.80;99.90
36444;DHT22;24692;45.642;13.806;2023-02-28T09:29:00;10.90;99.90
36444;DHT22;24692;45.642;13.806;2023-02-28T09:31:28;11.80;99.90
36444;DHT22;24692;45.642;13.806;2023-02-28T09:33:56;12.70;99.90
36444;DHT22;24692;45.642;13.806;2023-02-28T09:36:23;12.50;99.90
36444;DHT22;24692;45.642;13.806;2023-02-28T09:38:49;13.00;99.90
36444;DHT22;24692;45.642;13.806;2023-02-28T09:41:25;11.90;99.90
36444;DHT22;24692;45.642;13.806;2023-02-28T09:43:59;12.10;99.90
36444;DHT22;24692;45.642;13.806;2023-02-28T09:46:33;13.90;99.90
36444;DHT22;24692;45.642;13.806;2023-02-28T09:49:06;12.60;99.90
36444;DHT22;24692;45.642;13.806;2023-02-28T09:51:53;13.40;99.90
36444;DHT22;24692;45.642;13.806;2023-02-28T09:54:23;14.00;99.90
36444;DHT22;24692;45.642;13.806;2023-02-28T09:57:08;13.80;99.90
36444;DHT22;24692;45.642;13.806;2023-02-28T10:05:04;13.70;99.90
36444;DHT22;24692;45.642;13.806;2023-02-28T10:10:51;14.40;99.90
36444;DHT22;24692;45.642;13.806;2023-02-28T10:16:17;14.10;99.90
36444;DHT22;24692;45.642;13.806;2023-02-28T10:23:59;14.30;99.90
36444;DHT22;24692;45.642;13.806;2023-02-28T10:26:28;14.80;99.90
36444;DHT22;24692;45.642;13.806;2023-02-28T10:28:55;14.60;99.90
36444;DHT22;24692;45.642;13.806;2023-02-28T10:31:21;13.70;99.90
36444;DHT22;24692;45.642;13.806;2023-02-28T10:33:47;14.80;99.90
36444;DHT22;24692;45.642;13.806;2023-02-28T10:36:18;14.40;99.90
36444;DHT22;24692;45.642;13.806;2023-02-28T10:38:46;13.70;99.90
36444;DHT22;24692;45.642;13.806;2023-02-28T10:41:27;13.70;99.90
36444;DHT22;24692;45.642;13.806;2023-02-28T10:46:41;13.20;99.90
36444;DHT22;24692;45.642;13.806;2023-02-28T10:49:27;12.50;99.90
36444;DHT22;24692;45.642;13.806;2023-02-28T10:51:59;13.30;99.90
36444;DHT22;24692;45.642;13.806;2023-02-28T10:54:36;14.00;99.90
36444;DHT22;24692;45.642;13.806;2023-02-28T10:57:20;13.80;99.90
36444;DHT22;24692;45.642;13.806;2023-02-28T10:59:51;14.40;99.90
36444;DHT22;24692;45.642;13.806;2023-02-28T11:02:36;14.30;99.90
36444;DHT22;24692;45.642;13.806;2023-02-28T11:08:14;15.20;99.90
36444;DHT22;24692;45.642;13.806;2023-02-28T11:10:37;14.30;99.90
36444;DHT22;24692;45.642;13.806;2023-02-28T11:13:03;13.40;99.90
36444;DHT22;24692;45.642;13.806;2023-02-28T11:15:32;13.70;99.90
36444;DHT22;24692;45.642;13.806;2023-02-28T11:18:16;14.00;99.90
36444;DHT22;24692;45.642;13.806;2023-02-28T11:20:48;13.60;99.90
36444;DHT22;24692;45.642;13.806;2023-02-28T11:23:16;13.40;99.90
36444;DHT22;24692;45.642;13.806;2023-02-28T11:25:54;13.50;99.90
36444;DHT22;24692;45.642;13.806;2023-02-28T11:28:29;13.20;99.90
36444;DHT22;24692;45.642;13.806;2023-02-28T11:31:05;12.70;99.90
36444;DHT22;24692;45.642;13.806;2023-02-28T11:38:50;13.90;99.90
36444;DHT22;24692;45.642;13.806;2023-02-28T11:41:29;14.70;99.90
36444;DHT22;24692;45.642;13.806;2023-02-28T11:44:08;14.50;99.90
36444;DHT22;24692;45.642;13.806;2023-02-28T12:05:45;12.30;99.90
36444;DHT22;24692;45.642;13.806;2023-02-28T12:08:33;12.80;99.90
36444;DHT22;24692;45.642;13.806;2023-02-28T12:11:25;13.30;99.90
36444;DHT22;24692;45.642;13.806;2023-02-28T12:19:13;13.20;99.90
36444;DHT22;24692;45.642;13.806;2023-02-28T12:25:02;13.30;99.90
36444;DHT22;24692;45.642;13.806;2023-02-28T12:27:40;13.10;99.90
36444;DHT22;24692;45.642;13.806;2023-02-28T12:32:46;12.10;99.90
36444;DHT22;24692;45.642;13.806;2023-02-28T12:35:16;13.20;99.90
36444;DHT22;24692;45.642;13.806;2023-02-28T12:37:49;14.20;99.90
36444;DHT22;24692;45.642;13.806;2023-02-28T12:40:16;14.00;99.90
36444;DHT22;24692;45.642;13.806;2023-02-28T12:42:47;13.40;99.90
36444;DHT22;24692;45.642;13.806;2023-02-28T12:45:20;13.80;99.90
36444;DHT22;24692;45.642;13.806;2023-02-28T12:47:54;13.50;99.90
36444;DHT22;24692;45.642;13.806;2023-02-28T12:50:21;13.20;99.90
36444;DHT22;24692;45.642;13.806;2023-02-28T13:09:17;13.40;99.90
36444;DHT22;24692;45.642;13.806;2023-02-28T13:11:44;13.60;99.90
36444;DHT22;24692;45.642;13.806;2023-02-28T13:14:37;14.50;99.90
36444;DHT22;24692;45.642;13.806;2023-02-28T13:19:44;14.60;99.90
36444;DHT22;24692;45.642;13.806;2023-02-28T13:27:50;14.70;99.90
36444;DHT22;24692;45.642;13.806;2023-02-28T13:35:46;12.70;99.90
36444;DHT22;24692;45.642;13.806;2023-02-28T13:38:32;12.90;99.90
36444;DHT22;24692;45.642;13.806;2023-02-28T13:49:32;12.50;99.90
36444;DHT22;24692;45.642;13.806;2023-02-28T14:05:22;13.30;99.90
36444;DHT22;24692;45.642;13.806;2023-02-28T14:07:54;14.00;99.90
36444;DHT22;24692;45.642;13.806;2023-02-28T14:10:31;13.40;99.90
36444;DHT22;24692;45.642;13.806;2023-02-28T14:16:04;13.20;99.90
36444;DHT22;24692;45.642;13.806;2023-02-28T14:18:35;13.00;99.90
36444;DHT22;24692;45.642;13.806;2023-02-28T14:21:17;12.50;99.90
36444;DHT22;24692;45.642;13.806;2023-02-28T14:32:03;12.10;99.90
36444;DHT22;24692;45.642;13.806;2023-02-28T14:34:53;11.50;99.90
36444;DHT22;24692;45.642;13.806;2023-02-28T14:37:28;11.50;99.90
36444;DHT22;24692;45.642;13.806;2023-02-28T14:39:56;11.10;99.90
36444;DHT22;24692;45.642;13.806;2023-02-28T14:42:37;11.20;99.90
36444;DHT22;24692;45.642;13.806;2023-02-28T14:45:22;10.70;99.90
36444;DHT22;24692;45.642;13.806;2023-02-28T14:47:50;11.20;99.90
36444;DHT22;24692;45.642;13.806;2023-02-28T14:50:22;11.10;99.90
36444;DHT22;24692;45.642;13.806;2023-02-28T14:52:52;10.40;99.90
36444;DHT22;24692;45.642;13.806;2023-02-28T14:55:20;9.60;99.90
36444;DHT22;24692;45.642;13.806;2023-02-28T14:57:54;10.40;99.90
36444;DHT22;24692;45.642;13.806;2023-02-28T15:01:05;10.90;99.90
36444;DHT22;24692;45.642;13.806;2023-02-28T15:03:23;10.50;99.90
36444;DHT22;24692;45.642;13.806;2023-02-28T15:05:58;11.20;99.90
36444;DHT22;24692;45.642;13.806;2023-02-28T15:08:25;12.30;99.90
36444;DHT22;24692;45.642;13.806;2023-02-28T15:10:57;12.10;99.90
36444;DHT22;24692;45.642;13.806;2023-02-28T15:13:30;12.10;99.90
36444;DHT22;24692;45.642;13.806;2023-02-28T15:16:04;11.80;99.90
36444;DHT22;24692;45.642;13.806;2023-02-28T15:21:06;11.40;99.90
36444;DHT22;24692;45.642;13.806;2023-02-28T15:23:35;11.50;99.90
36444;DHT22;24692;45.642;13.806;2023-02-28T15:26:01;11.00;99.90
36444;DHT22;24692;45.642;13.806;2023-02-28T15:28:28;11.20;99.90
36444;DHT22;24692;45.642;13.806;2023-02-28T15:31:00;11.40;99.90
36444;DHT22;24692;45.642;13.806;2023-02-28T15:33:30;11.70;99.90
36444;DHT22;24692;45.642;13.806;2023-02-28T15:36:10;11.70;99.90
36444;DHT22;24692;45.642;13.806;2023-02-28T15:38:37;11.60;99.90
36444;DHT22;24692;45.642;13.806;2023-02-28T15:41:03;11.00;99.90
36444;DHT22;24692;45.642;13.806;2023-02-28T15:43:35;11.00;99.90
36444;DHT22;24692;45.642;13.806;2023-02-28T15:46:08;10.70;99.90
36444;DHT22;24692;45.642;13.806;2023-02-28T15:48:52;11.00;99.90
36444;DHT22;24692;45.642;13.806;2023-02-28T15:51:22;10.30;99.90
36444;DHT22;24692;45.642;13.806;2023-02-28T15:56:33;9.50;99.90
36444;DHT22;24692;45.642;13.806;2023-02-28T15:59:05;9.20;99.90
36444;DHT22;24692;45.642;13.806;2023-02-28T16:01:38;8.80;99.90
36444;DHT22;24692;45.642;13.806;2023-02-28T16:04:16;9.10;99.90
36444;DHT22;24692;45.642;13.806;2023-02-28T16:09:23;8.90;99.90
36444;DHT22;24692;45.642;13.806;2023-02-28T16:11:50;8.80;99.90
36444;DHT22;24692;45.642;13.806;2023-02-28T16:14:22;8.70;99.90
36444;DHT22;24692;45.642;13.806;2023-02-28T16:16:51;8.40;99.90
36444;DHT22;24692;45.642;13.806;2023-02-28T16:19:18;8.50;99.90
36444;DHT22;24692;45.642;13.806;2023-02-28T16:21:44;8.70;99.90
36444;DHT22;24692;45.642;13.806;2023-02-28T16:24:10;8.50;99.90
36444;DHT22;24692;45.642;13.806;2023-02-28T16:26:36;8.20;99.90
36444;DHT22;24692;45.642;13.806;2023-02-28T16:29:05;8.20;99.90
36444;DHT22;24692;45.642;13.806;2023-02-28T16:31:34;7.40;99.90
36444;DHT22;24692;45.642;13.806;2023-02-28T16:34:01;7.20;99.90
36444;DHT22;24692;45.642;13.806;2023-02-28T16:36:27;7.00;99.90
36444;DHT22;24692;45.642;13.806;2023-02-28T16:38:54;6.90;99.90
36444;DHT22;24692;45.642;13.806;2023-02-28T16:41:22;6.70;99.90
36444;DHT22;24692;45.642;13.806;2023-02-28T16:43:52;6.70;99.90
36444;DHT22;24692;45.642;13.806;2023-02-28T16:46:18;6.50;99.90
36444;DHT22;24692;45.642;13.806;2023-02-28T16:48:45;6.50;99.90
36444;DHT22;24692;45.642;13.806;2023-02-28T16:51:13;6.40;99.90
36444;DHT22;24692;45.642;13.806;2023-02-28T16:53:39;6.50;99.90
36444;DHT22;24692;45.642;13.806;2023-02-28T16:56:05;6.30;99.90
36444;DHT22;24692;45.642;13.806;2023-02-28T16:58:32;6.20;99.90
36444;DHT22;24692;45.642;13.806;2023-02-28T17:01:02;6.20;99.90
36444;DHT22;24692;45.642;13.806;2023-02-28T17:03:28;6.20;99.90
36444;DHT22;24692;45.642;13.806;2023-02-28T17:05:54;6.20;99.90
36444;DHT22;24692;45.642;13.806;2023-02-28T17:08:20;6.00;99.90
36444;DHT22;24692;45.642;13.806;2023-02-28T17:10:46;5.90;99.90
36444;DHT22;24692;45.642;13.806;2023-02-28T17:13:11;5.80;99.90
36444;DHT22;24692;45.642;13.806;2023-02-28T17:15:38;5.80;99.90
36444;DHT22;24692;45.642;13.806;2023-02-28T17:18:05;5.50;99.90
36444;DHT22;24692;45.642;13.806;2023-02-28T17:20:31;5.60;99.90
36444;DHT22;24692;45.642;13.806;2023-02-28T17:22:57;5.60;99.90
36444;DHT22;24692;45.642;13.806;2023-02-28T17:25:23;5.70;99.90
36444;DHT22;24692;45.642;13.806;2023-02-28T17:27:50;5.80;99.90
36444;DHT22;24692;45.642;13.806;2023-02-28T17:30:21;5.90;99.90
36444;DHT22;24692;45.642;13.806;2023-02-28T17:32:47;5.90;99.90
36444;DHT22;24692;45.642;13.806;2023-02-28T17:35:13;5.80;99.90
36444;DHT22;24692;45.642;13.806;2023-02-28T17:37:39;5.60;99.90
36444;DHT22;24692;45.642;13.806;2023-02-28T17:40:06;5.60;99.90
36444;DHT22;24692;45.642;13.806;2023-02-28T17:42:32;5.60;99.90
36444;DHT22;24692;45.642;13.806;2023-02-28T17:44:57;5.60;99.90
36444;DHT22;24692;45.642;13.806;2023-02-28T17:47:23;5.80;99.90
36444;DHT22;24692;45.642;13.806;2023-02-28T17:49:49;5.80;99.90
36444;DHT22;24692;45.642;13.806;2023-02-28T17:52:14;5.70;99.90
36444;DHT22;24692;45.642;13.806;2023-02-28T17:54:40;5.50;99.90
36444;DHT22;24692;45.642;13.806;2023-02-28T17:57:08;5.50;99.90
36444;DHT22;24692;45.642;13.806;2023-02-28T17:59:34;5.70;99.90
36444;DHT22;24692;45.642;13.806;2023-02-28T18:02:01;5.80;99.90
36444;DHT22;24692;45.642;13.806;2023-02-28T18:04:26;5.80;99.90
36444;DHT22;24692;45.642;13.806;2023-02-28T18:06:53;5.80;99.90
36444;DHT22;24692;45.642;13.806;2023-02-28T18:09:21;5.70;99.90
36444;DHT22;24692;45.642;13.806;2023-02-28T18:11:47;5.70;99.90